Schrunz, Liechtenstein
Current Conditions -  °F | °C
As of 6:20 AM on Friday 28 Nov 2014 (Local Time) from LSZR Reporting Station
Overcast Overcast  
Wind Chill: 38°   Ceiling: 300
Heat Index: 41°   Visibility: 6mi
Dew Point: 41°   Wind: 5mph
Humidity: 100%   Direction: 50°NE
Pressure: 29.77"   Gusts: NA
Location:  47.08°N, 9.93°E
Report Text: LSZR 280420Z AUTO 05004KT 360V080 9999 OVC003 05/05 Q1008
Loading
Personal Weather Stations






























Interactive Weather Map New forecast layout! Learn more

10-Day Weather Forecast

Advertisements
Track Severe Weather on mobile